Time;durP1;ratioP1;P1;durP2;ratioP2;P2;SDS_P1;SDS_P2;PMS_P1;PMS_P2;Temp;Humidity;BMP_temperature;BMP_pressure;BME280_temperature;BME280_humidity;BME280_pressure;Samples;Min_cycle;Max_cycle;Signal;HPM_P1;HPM_P2
2022/11/03 05:21:42;;;;;;;91.95;37.65;;;;;;;-142.57;100.00;61215.63;4940249;29;20056;-90
2022/11/03 05:24:12;;;;;;;95.03;38.10;;;;;;;-142.57;100.00;61215.63;4936580;29;20327;-91
2022/11/03 05:27:15;;;;;;;81.55;37.72;;;;;;;-142.57;100.00;61215.63;4930210;23;20040;-92
2022/11/03 05:32:41;;;;;;;77.15;35.53;;;;;;;-142.57;100.00;61215.63;4925803;29;20139;-92
2022/11/03 05:35:21;;;;;;;82.88;35.72;;;;;;;-142.57;100.00;61215.63;5003313;23;20052;-90
2022/11/03 05:37:47;;;;;;;87.53;35.58;;;;;;;-142.57;100.00;61215.63;4897954;29;20297;-91
2022/11/03 05:40:21;;;;;;;81.93;34.72;;;;;;;-142.57;100.00;61215.63;4910703;29;20036;-91
2022/11/03 05:42:52;;;;;;;79.68;36.33;;;;;;;-142.57;100.00;61215.63;4920325;29;20044;-90
2022/11/03 05:45:31;;;;;;;77.05;36.08;;;;;;;-142.57;100.00;61215.63;4921508;29;20048;-90
2022/11/03 05:47:59;;;;;;;75.43;33.35;;;;;;;-142.57;100.00;61215.63;4909841;29;20123;-88
2022/11/03 05:50:29;;;;;;;90.43;35.15;;;;;;;-142.57;100.00;61215.63;4903233;29;20060;-87
2022/11/03 05:53:37;;;;;;;79.35;34.15;;;;;;;-142.57;100.00;61215.63;4901296;29;20033;-86
2022/11/03 05:56:05;;;;;;;81.07;35.53;;;;;;;-142.57;100.00;61215.63;4911572;29;20064;-89
2022/11/03 05:58:38;;;;;;;81.90;35.00;;;;;;;-142.57;100.00;61215.63;4916446;29;20044;-88
2022/11/03 06:01:15;;;;;;;82.45;34.70;;;;;;;-142.57;100.00;61215.63;4918003;29;20036;-87
2022/11/03 06:03:41;;;;;;;63.80;32.00;;;;;;;-142.57;100.00;61215.63;4917749;29;20096;-87
2022/11/03 06:06:28;;;;;;;69.53;31.63;;;;;;;-142.57;100.00;61215.63;4918424;29;20040;-90
2022/11/03 06:08:56;;;;;;;66.32;30.50;;;;;;;-142.57;100.00;61215.63;4928823;29;20042;-86
2022/11/03 06:11:34;;;;;;;61.80;29.65;;;;;;;-142.57;100.00;61215.63;4922275;29;20052;-84
2022/11/03 06:14:00;;;;;;;63.72;29.60;;;;;;;-142.57;100.00;61215.63;4891297;29;20051;-84
2022/11/03 06:16:42;;;;;;;61.85;30.70;;;;;;;-142.57;100.00;61215.63;4897280;29;20119;-85
2022/11/03 06:19:23;;;;;;;61.00;29.15;;;;;;;-142.57;100.00;61215.63;4899422;29;20367;-89
2022/11/03 06:21:50;;;;;;;58.78;28.55;;;;;;;-142.57;100.00;61215.63;4898816;29;20042;-86
2022/11/03 06:24:19;;;;;;;66.10;27.25;;;;;;;-142.57;100.00;61215.63;4892561;29;20028;-86
2022/11/03 06:26:47;;;;;;;56.38;27.25;;;;;;;-142.57;100.00;61215.63;4893359;29;20072;-89
2022/11/03 06:29:17;;;;;;;63.00;29.52;;;;;;;-142.57;100.00;61215.63;4893146;29;20525;-87
2022/11/03 06:31:46;;;;;;;69.13;31.60;;;;;;;-142.57;100.00;61215.63;4892496;29;20040;-88
2022/11/03 06:34:33;;;;;;;69.07;31.55;;;;;;;-142.57;100.00;61215.63;4890118;29;20499;-86
2022/11/03 06:37:12;;;;;;;63.25;29.23;;;;;;;-142.57;100.00;61215.63;4902032;29;20040;-89
2022/11/03 06:39:38;;;;;;;60.53;28.90;;;;;;;-142.57;100.00;61215.63;4890771;29;20117;-83
2022/11/03 06:42:11;;;;;;;56.10;28.50;;;;;;;-142.57;100.00;61215.63;4888802;29;20081;-91
2022/11/03 06:44:40;;;;;;;55.97;27.48;;;;;;;-142.57;100.00;61215.63;4888519;29;20033;-88
2022/11/03 06:47:24;;;;;;;61.58;27.95;;;;;;;-142.57;100.00;61215.63;4897359;29;20036;-85
2022/11/03 06:49:55;;;;;;;59.97;27.75;;;;;;;-142.57;100.00;61215.63;4888913;29;20084;-87
2022/11/03 06:52:21;;;;;;;;;;;;;;;-142.57;100.00;61215.63;4874237;29;20612;-89
2022/11/03 06:54:53;;;;;;;58.47;26.33;;;;;;;-142.57;100.00;61215.63;4904270;29;19920;-87
2022/11/03 06:57:19;;;;;;;59.60;28.60;;;;;;;-142.57;100.00;61215.63;4894910;29;20041;-85
2022/11/03 06:59:45;;;;;;;58.47;26.38;;;;;;;-142.57;100.00;61215.63;4898962;29;20510;-87
2022/11/03 07:02:43;;;;;;;56.58;26.60;;;;;;;-142.57;100.00;61215.63;4898260;29;20126;-86
2022/11/03 07:05:19;;;;;;;54.25;25.95;;;;;;;-142.57;100.00;61215.63;4886548;29;20041;-86
2022/11/03 07:07:45;;;;;;;60.58;29.80;;;;;;;-142.57;100.00;61215.63;4881393;29;20042;-85
2022/11/03 07:10:11;;;;;;;68.97;30.58;;;;;;;-142.57;100.00;61215.63;4880534;29;20043;-89
2022/11/03 07:12:37;;;;;;;67.03;31.77;;;;;;;-142.57;100.00;61215.63;4880617;29;20045;-87
2022/11/03 07:15:19;;;;;;;68.47;31.50;;;;;;;-142.57;100.00;61215.63;4880547;29;20037;-89
2022/11/03 07:17:45;;;;;;;61.83;30.65;;;;;;;-142.57;100.00;61215.63;4880127;29;20041;-84
2022/11/03 07:20:17;;;;;;;67.68;30.02;;;;;;;-142.57;100.00;61215.63;4880263;29;20041;-84
2022/11/03 07:22:43;;;;;;;68.73;31.40;;;;;;;-142.57;100.00;61215.63;4895517;29;20045;-86
2022/11/03 07:25:20;;;;;;;62.53;29.90;;;;;;;-142.57;100.00;61215.63;4883730;29;20487;-85
2022/11/03 07:27:51;;;;;;;59.17;28.20;;;;;;;-142.57;100.00;61215.63;4883628;29;20041;-90
2022/11/03 07:30:28;;;;;;;60.30;28.63;;;;;;;-142.57;100.00;61215.63;4883348;29;20072;-86
2022/11/03 07:33:01;;;;;;;56.60;26.45;;;;;;;-142.57;100.00;61215.63;4882757;29;20044;-83
2022/11/03 07:35:33;;;;;;;61.63;29.40;;;;;;;-142.57;100.00;61215.63;4883434;29;20041;-84
2022/11/03 07:38:11;;;;;;;57.27;28.90;;;;;;;-142.57;100.00;61215.63;4882811;29;20037;-84
2022/11/03 07:40:36;;;;;;;60.13;29.92;;;;;;;-142.57;100.00;61215.63;4896931;29;20286;-80
2022/11/03 07:43:29;;;;;;;57.13;27.25;;;;;;;-142.57;100.00;61215.63;4882571;29;20040;-84
2022/11/03 07:45:57;;;;;;;57.13;28.42;;;;;;;-142.57;100.00;61215.63;4882673;29;20041;-82
2022/11/03 07:48:32;;;;;;;64.85;29.40;;;;;;;-142.57;100.00;61215.63;4886453;29;20041;-81
2022/11/03 07:51:23;;;;;;;58.42;26.23;;;;;;;-142.57;100.00;61215.63;4885135;29;20065;-84
2022/11/03 07:53:57;;;;;;;60.70;26.13;;;;;;;-142.57;100.00;61215.63;4882365;29;20041;-84
2022/11/03 07:56:32;;;;;;;48.13;25.55;;;;;;;-142.57;100.00;61215.63;4882463;29;20119;-83
2022/11/03 07:59:03;;;;;;;60.70;28.77;;;;;;;-142.57;100.00;61215.63;4882024;29;20483;-83
2022/11/03 08:01:36;;;;;;;63.45;30.00;;;;;;;-142.57;100.00;61215.63;4882392;29;20452;-80
2022/11/03 08:04:05;;;;;;;66.25;30.70;;;;;;;-142.57;100.00;61215.63;4882274;29;20487;-83
2022/11/03 08:06:32;;;;;;;67.90;30.83;;;;;;;-142.57;100.00;61215.63;4896546;29;20033;-83
2022/11/03 08:08:57;;;;;;;64.25;29.80;;;;;;;-142.57;100.00;61215.63;4882220;29;20029;-81
2022/11/03 08:11:23;;;;;;;66.72;33.15;;;;;;;-142.57;100.00;61215.63;4882411;29;20097;-83
2022/11/03 08:13:52;;;;;;;80.38;34.97;;;;;;;-142.57;100.00;61215.63;4882287;29;20051;-84
2022/11/03 08:16:19;;;;;;;81.07;34.60;;;;;;;-142.57;100.00;61215.63;4892047;29;20045;-83
2022/11/03 08:18:45;;;;;;;76.00;32.97;;;;;;;-142.57;100.00;61215.63;4892282;29;20036;-87
2022/11/03 08:21:11;;;;;;;74.88;34.38;;;;;;;-142.57;100.00;61215.63;4900506;29;20059;-82
2022/11/03 08:23:36;;;;;;;74.03;34.60;;;;;;;-142.57;100.00;61215.63;4893662;29;20553;-81
2022/11/03 08:26:02;;;;;;;70.60;32.25;;;;;;;-142.57;100.00;61215.63;4894222;29;20381;-87
2022/11/03 08:28:28;;;;;;;73.65;31.58;;;;;;;-142.57;100.00;61215.63;4890744;29;20391;-84
2022/11/03 08:30:53;;;;;;;62.88;30.55;;;;;;;-142.57;100.00;61215.63;4899600;29;20398;-84
2022/11/03 08:33:19;;;;;;;67.35;29.65;;;;;;;-142.57;100.00;61215.63;4882369;29;20442;-82
2022/11/03 08:35:44;;;;;;;60.95;30.23;;;;;;;-142.57;100.00;61215.63;4880936;29;20037;-87
2022/11/03 08:38:10;;;;;;;67.82;29.85;;;;;;;-142.57;100.00;61215.63;4884649;29;20037;-83
2022/11/03 08:40:36;;;;;;;64.28;29.90;;;;;;;-142.57;100.00;61215.63;4898107;29;20074;-86
2022/11/03 08:43:01;;;;;;;69.63;29.50;;;;;;;-142.57;100.00;61215.63;4899064;29;20052;-86
2022/11/03 08:45:30;;;;;;;63.30;28.42;;;;;;;-142.57;100.00;61215.63;4899496;29;20024;-87
2022/11/03 08:47:56;;;;;;;63.58;29.70;;;;;;;-142.57;100.00;61215.63;4899349;29;20036;-86
2022/11/03 08:50:22;;;;;;;72.18;31.83;;;;;;;-142.57;100.00;61215.63;4899468;29;20036;-85
2022/11/03 08:52:48;;;;;;;104.07;39.80;;;;;;;-142.57;100.00;61215.63;4899551;29;20064;-84
2022/11/03 08:55:14;;;;;;;72.07;31.65;;;;;;;-142.57;100.00;61215.63;4899420;29;20032;-84
2022/11/03 08:57:39;;;;;;;64.57;29.98;;;;;;;-142.57;100.00;61215.63;4895032;29;20033;-84
2022/11/03 09:00:06;;;;;;;62.97;29.10;;;;;;;-142.57;100.00;61215.63;4909331;29;20036;-84
2022/11/03 09:02:32;;;;;;;67.13;30.30;;;;;;;-142.57;100.00;61215.63;4909619;29;20076;-81
2022/11/03 09:04:57;;;;;;;62.80;28.33;;;;;;;-142.57;100.00;61215.63;4904670;29;20041;-84
2022/11/03 09:07:23;;;;;;;57.72;28.38;;;;;;;-142.57;100.00;61215.63;4906251;29;20044;-83
2022/11/03 09:09:52;;;;;;;53.70;26.33;;;;;;;-142.57;100.00;61215.63;4910980;29;20056;-83
2022/11/03 09:12:18;;;;;;;58.75;28.27;;;;;;;-142.57;100.00;61215.63;4895241;29;20088;-85
2022/11/03 09:14:43;;;;;;;64.57;29.08;;;;;;;-142.57;100.00;61215.63;4897622;29;20049;-85
2022/11/03 09:17:09;;;;;;;67.35;30.75;;;;;;;-142.57;100.00;61215.63;4898638;29;20501;-87
2022/11/03 09:19:34;;;;;;;65.80;31.15;;;;;;;-142.57;100.00;61215.63;4906559;29;20060;-83
2022/11/03 09:22:00;;;;;;;62.47;29.58;;;;;;;-142.57;100.00;61215.63;4906320;29;20036;-86
2022/11/03 09:24:26;;;;;;;61.42;30.17;;;;;;;-142.57;100.00;61215.63;4914330;29;20048;-84
2022/11/03 09:26:51;;;;;;;59.53;29.55;;;;;;;-142.57;100.00;61215.63;4914235;29;20061;-81
2022/11/03 09:29:17;;;;;;;59.85;28.58;;;;;;;-142.57;100.00;61215.63;4911835;29;20101;-82
2022/11/03 09:31:45;;;;;;;54.17;26.95;;;;;;;-142.57;100.00;61215.63;4900324;29;20372;-87
2022/11/03 09:34:13;;;;;;;62.78;26.50;;;;;;;-142.57;100.00;61215.63;4899311;29;20047;-85
2022/11/03 09:36:42;;;;;;;51.88;25.67;;;;;;;-142.57;100.00;61215.63;4899154;29;20032;-85
2022/11/03 09:39:08;;;;;;;51.67;25.52;;;;;;;-142.57;100.00;61215.63;4899255;29;20041;-87
2022/11/03 09:41:34;;;;;;;46.83;23.67;;;;;;;-142.57;100.00;61215.63;4899237;29;20491;-86
2022/11/03 09:44:00;;;;;;;55.30;24.95;;;;;;;-142.57;100.00;61215.63;4900715;29;20100;-89
2022/11/03 09:46:27;;;;;;;54.58;27.58;;;;;;;-142.57;100.00;61215.63;4899655;29;20042;-87
2022/11/03 09:48:55;;;;;;;52.75;26.90;;;;;;;-142.57;100.00;61215.63;4898344;29;20032;-86
2022/11/03 09:51:24;;;;;;;61.00;26.80;;;;;;;-142.57;100.00;61215.63;4893726;29;20491;-84
2022/11/03 09:53:50;;;;;;;64.43;26.63;;;;;;;-142.57;100.00;61215.63;4899034;29;20052;-84
2022/11/03 09:56:18;;;;;;;51.83;25.13;;;;;;;-142.57;100.00;61215.63;4908508;29;20033;-85
2022/11/03 09:58:44;;;;;;;56.33;25.98;;;;;;;-142.57;100.00;61215.63;4904779;29;20466;-85
2022/11/03 10:01:10;;;;;;;55.75;25.60;;;;;;;-142.57;100.00;61215.63;4891556;29;20120;-85
2022/11/03 10:03:38;;;;;;;52.15;26.58;;;;;;;-142.57;100.00;61215.63;4883796;29;20551;-87
2022/11/03 10:06:04;;;;;;;51.17;24.15;;;;;;;-142.57;100.00;61215.63;4887679;29;20045;-86
2022/11/03 10:08:32;;;;;;;50.78;24.20;;;;;;;-142.57;100.00;61215.63;4890379;29;20116;-88
2022/11/03 10:11:00;;;;;;;56.10;24.13;;;;;;;-142.57;100.00;61215.63;4879791;29;20065;-88
2022/11/03 10:13:32;;;;;;;56.13;23.45;;;;;;;-142.57;100.00;61215.63;4879683;29;20059;-89
2022/11/03 10:16:00;;;;;;;54.10;24.17;;;;;;;-142.57;100.00;61215.63;4894044;29;20047;-86
2022/11/03 10:18:27;;;;;;;51.75;23.38;;;;;;;-142.57;100.00;61215.63;4879743;29;20084;-87
2022/11/03 10:20:53;;;;;;;62.13;23.02;;;;;;;-142.57;100.00;61215.63;4905713;29;20115;-86
2022/11/03 10:23:18;;;;;;;44.47;23.88;;;;;;;-142.57;100.00;61215.63;4916962;29;20466;-87
2022/11/03 10:25:45;;;;;;;47.35;23.42;;;;;;;-142.57;100.00;61215.63;4917359;29;20042;-87
2022/11/03 10:28:21;;;;;;;55.45;25.27;;;;;;;-142.57;100.00;61215.63;4917110;29;20036;-87
2022/11/03 10:30:50;;;;;;;51.30;25.33;;;;;;;-142.57;100.00;61215.63;4917337;29;20044;-87
2022/11/03 10:33:37;;;;;;;48.00;25.90;;;;;;;-142.57;100.00;61215.63;4927660;29;20059;-88
2022/11/03 10:42:06;;;;;;;43.80;19.65;;;;;;;-142.57;100.00;61215.63;5385173;23;20040;-90
2022/11/03 10:44:40;;;;;;;51.20;24.80;;;;;;;-142.57;100.00;61215.63;4940258;29;20064;-90
2022/11/03 10:47:25;;;;;;;56.47;25.85;;;;;;;-142.57;100.00;61215.63;4925930;29;20028;-90
2022/11/03 10:49:55;;;;;;;52.70;25.73;;;;;;;-142.57;100.00;61215.63;4940802;29;20024;-88
2022/11/03 10:52:26;;;;;;;56.28;25.63;;;;;;;-142.57;100.00;61215.63;4940220;29;20029;-87
2022/11/03 10:55:06;;;;;;;49.65;26.13;;;;;;;-142.57;100.00;61215.63;4933960;29;20060;-88
2022/11/03 10:57:32;;;;;;;57.42;26.80;;;;;;;-142.57;100.00;61215.63;4938618;29;20566;-88
2022/11/03 10:59:58;;;;;;;53.92;25.73;;;;;;;-142.57;100.00;61215.63;4924187;29;20048;-89
2022/11/03 11:02:30;;;;;;;60.65;26.80;;;;;;;-142.57;100.00;61215.63;4943379;29;20040;-89
2022/11/03 11:07:54;;;;;;;49.63;26.02;;;;;;;-142.57;100.00;61215.63;4878245;27;20052;-88
2022/11/03 11:10:22;;;;;;;67.85;26.90;;;;;;;-142.57;100.00;61215.63;4925210;29;20063;-86
2022/11/03 11:13:25;;;;;;;51.03;25.90;;;;;;;-142.57;100.00;61215.63;4924705;29;20045;-87
2022/11/03 11:15:56;;;;;;;49.83;26.20;;;;;;;-142.57;100.00;61215.63;4906865;29;20025;-88
2022/11/03 11:18:30;;;;;;;50.25;24.38;;;;;;;-142.57;100.00;61215.63;4906862;29;20097;-89
2022/11/03 11:21:19;;;;;;;49.88;23.95;;;;;;;-142.57;100.00;61215.63;4906246;29;20119;-89
2022/11/03 11:23:46;;;;;;;49.08;23.60;;;;;;;-142.57;100.00;61215.63;4886466;29;20041;-88
2022/11/03 11:26:32;;;;;;;40.95;20.80;;;;;;;-142.57;100.00;61215.63;4900470;29;20040;-88
2022/11/03 11:29:10;;;;;;;34.38;20.10;;;;;;;-142.57;100.00;61215.63;4903264;29;20032;-90
2022/11/03 11:31:58;;;;;;;35.83;19.17;;;;;;;-142.57;100.00;61215.63;4904026;29;20024;-89
2022/11/03 11:34:34;;;;;;;31.88;18.50;;;;;;;-142.57;100.00;61215.63;4905652;29;20049;-90
2022/11/03 11:37:16;;;;;;;31.77;18.40;;;;;;;-142.57;100.00;61215.63;4905050;29;20045;-89
2022/11/03 11:42:28;;;;;;;27.23;15.55;;;;;;;-142.57;100.00;61215.63;3037033;23;20039;-90
2022/11/03 11:45:05;;;;;;;23.65;13.75;;;;;;;-142.57;100.00;61215.63;4929147;29;20092;-90
2022/11/03 11:47:54;;;;;;;25.85;13.93;;;;;;;-142.57;100.00;61215.63;4943495;29;20477;-87
2022/11/03 11:50:30;;;;;;;27.85;14.13;;;;;;;-142.57;100.00;61215.63;5161346;23;20051;-90
2022/11/03 11:53:56;;;;;;;18.80;10.43;;;;;;;-142.57;100.00;61215.63;4928308;29;20044;-89
2022/11/03 11:56:22;;;;;;;11.57;6.55;;;;;;;-142.57;100.00;61215.63;4942666;29;20048;-89
2022/11/03 11:58:55;;;;;;;12.30;6.95;;;;;;;-142.57;100.00;61215.63;4927545;29;20047;-86
2022/11/03 12:01:42;;;;;;;16.75;7.80;;;;;;;-142.57;100.00;61215.63;4943930;29;20036;-90
2022/11/03 12:05:02;;;;;;;13.80;7.38;;;;;;;-142.57;100.00;61215.63;5002157;23;20043;-90
2022/11/03 12:07:36;;;;;;;11.88;7.45;;;;;;;-142.57;100.00;61215.63;4926357;29;20091;-88
2022/11/03 12:10:16;;;;;;;18.70;9.30;;;;;;;-142.57;100.00;61215.63;4939582;29;20032;-90
2022/11/03 12:12:46;;;;;;;19.60;10.00;;;;;;;-142.57;100.00;61215.63;4925519;29;20032;-88
2022/11/03 12:15:50;;;;;;;17.55;9.40;;;;;;;-142.57;100.00;61215.63;4942782;29;20043;-89
2022/11/03 12:18:44;;;;;;;20.13;9.10;;;;;;;-142.57;100.00;61215.63;4942351;29;20047;-90
2022/11/03 12:21:13;;;;;;;;;;;;;;;-142.57;100.00;61215.63;4936449;29;20266;-88
2022/11/03 12:23:44;;;;;;;19.13;11.45;;;;;;;-142.57;100.00;61215.63;4939131;29;19934;-90
2022/11/03 12:26:27;;;;;;;23.35;11.23;;;;;;;-142.57;100.00;61215.63;4932777;29;20032;-86
2022/11/03 12:28:53;;;;;;;27.40;11.60;;;;;;;-142.57;100.00;61215.63;4910163;29;20036;-89
2022/11/03 12:31:19;;;;;;;47.60;25.05;;;;;;;-142.57;100.00;61215.63;4910950;29;20044;-90
2022/11/03 12:33:48;;;;;;;34.13;18.23;;;;;;;-142.57;100.00;61215.63;4910003;29;20127;-86
2022/11/03 12:36:14;;;;;;;26.08;13.10;;;;;;;-142.57;100.00;61215.63;4893131;29;20040;-89
2022/11/03 12:38:40;;;;;;;25.45;14.07;;;;;;;-142.57;100.00;61215.63;4893200;29;20482;-86
2022/11/03 12:41:21;;;;;;;31.02;15.82;;;;;;;-142.57;100.00;61215.63;4909717;29;20048;-90
2022/11/03 12:43:52;;;;;;;27.92;16.73;;;;;;;-142.57;100.00;61215.63;4907144;29;20063;-89
2022/11/03 12:46:20;;;;;;;35.17;17.88;;;;;;;-142.57;100.00;61215.63;4892532;29;20040;-86
2022/11/03 12:48:46;;;;;;;33.85;18.38;;;;;;;-142.57;100.00;61215.63;4907866;29;20044;-86
2022/11/03 12:51:16;;;;;;;43.10;20.52;;;;;;;-142.57;100.00;61215.63;4909901;29;20039;-86
2022/11/03 12:53:42;;;;;;;34.38;19.25;;;;;;;-142.57;100.00;61215.63;4909289;29;20048;-88
2022/11/03 12:56:08;;;;;;;37.97;20.13;;;;;;;-142.57;100.00;61215.63;4908747;29;20047;-86
2022/11/03 12:58:38;;;;;;;33.47;19.30;;;;;;;-142.57;100.00;61215.63;4911601;29;20395;-89
2022/11/03 13:01:07;;;;;;;35.08;18.77;;;;;;;-142.57;100.00;61215.63;4894758;29;20044;-86
2022/11/03 13:03:33;;;;;;;41.80;19.52;;;;;;;-142.57;100.00;61215.63;4884792;29;20570;-85
2022/11/03 13:06:03;;;;;;;35.42;19.35;;;;;;;-142.57;100.00;61215.63;4913443;29;20029;-88
2022/11/03 13:08:30;;;;;;;41.80;20.35;;;;;;;-142.57;100.00;61215.63;4914756;29;20036;-88
2022/11/03 13:10:58;;;;;;;40.65;19.65;;;;;;;-142.57;100.00;61215.63;4915771;29;20040;-86
2022/11/03 13:13:27;;;;;;;34.03;18.70;;;;;;;-142.57;100.00;61215.63;4916949;29;20044;-89
2022/11/03 13:15:53;;;;;;;45.63;20.63;;;;;;;-142.57;100.00;61215.63;4894083;29;20501;-86
2022/11/03 13:18:19;;;;;;;37.55;19.42;;;;;;;-142.57;100.00;61215.63;4908532;29;20033;-90
2022/11/03 13:20:45;;;;;;;34.78;18.65;;;;;;;-142.57;100.00;61215.63;4907736;29;20084;-85
2022/11/03 17:47:57;;;;;;;57.05;28.92;;;;;;;-142.57;100.00;61215.63;4640945;23;20104;-91
2022/11/03 17:50:24;;;;;;;56.88;29.33;;;;;;;-142.57;100.00;61215.63;4918167;29;20067;-91
2022/11/03 17:52:50;;;;;;;56.35;29.00;;;;;;;-142.57;100.00;61215.63;4912777;29;20074;-93
2022/11/03 17:55:16;;;;;;;63.10;31.63;;;;;;;-142.57;100.00;61215.63;4918751;29;20115;-91
2022/11/03 17:57:42;;;;;;;66.07;32.53;;;;;;;-142.57;100.00;61215.63;5147554;23;20072;-92
2022/11/03 18:00:14;;;;;;;72.10;31.80;;;;;;;-142.57;100.00;61215.63;4942437;23;20040;-91
2022/11/03 18:02:40;;;;;;;70.03;32.63;;;;;;;-142.57;100.00;61215.63;4923076;29;20063;-93
2022/11/03 18:05:27;;;;;;;66.43;32.08;;;;;;;-142.57;100.00;61215.63;4917748;29;20406;-91
2022/11/03 18:07:59;;;;;;;68.90;31.85;;;;;;;-142.57;100.00;61215.63;4921298;29;20398;-92
2022/11/03 18:10:28;;;;;;;60.55;30.60;;;;;;;-142.57;100.00;61215.63;4920206;29;20055;-92
2022/11/03 18:13:19;;;;;;;63.65;31.83;;;;;;;-142.57;100.00;61215.63;4918509;29;20031;-91
2022/11/03 18:16:07;;;;;;;64.30;31.48;;;;;;;-142.57;100.00;61215.63;4927925;29;20080;-89
2022/11/03 18:18:36;;;;;;;65.65;33.05;;;;;;;-142.57;100.00;61215.63;4903965;29;20172;-88
2022/11/03 18:21:06;;;;;;;65.15;31.15;;;;;;;-142.57;100.00;61215.63;4921502;29;20036;-89
2022/11/03 18:23:33;;;;;;;69.70;32.47;;;;;;;-142.57;100.00;61215.63;4924802;29;20130;-91
2022/11/03 18:26:00;;;;;;;72.32;34.33;;;;;;;-142.57;100.00;61215.63;4923235;29;20059;-91
2022/11/03 18:28:28;;;;;;;71.60;32.75;;;;;;;-142.57;100.00;61215.63;4921089;29;20043;-90
2022/11/03 18:30:57;;;;;;;75.10;34.38;;;;;;;-142.57;100.00;61215.63;4922775;29;20398;-90
2022/11/03 18:33:30;;;;;;;77.70;33.90;;;;;;;-142.57;100.00;61215.63;4921078;29;20036;-90
2022/11/03 18:36:01;;;;;;;66.32;33.28;;;;;;;-142.57;100.00;61215.63;4929027;29;20066;-90
2022/11/03 18:38:30;;;;;;;67.15;34.05;;;;;;;-142.57;100.00;61215.63;5148980;23;20115;-93
2022/11/03 18:41:34;;;;;;;75.50;36.35;;;;;;;-142.57;100.00;61215.63;5196939;23;20067;-89
2022/11/03 18:44:33;;;;;;;80.90;37.07;;;;;;;-142.57;100.00;61215.63;4949967;23;20055;-92
2022/11/03 18:47:00;;;;;;;75.55;37.88;;;;;;;-142.57;100.00;61215.63;4927805;29;20296;-91
2022/11/03 18:49:26;;;;;;;74.78;36.25;;;;;;;-142.57;100.00;61215.63;4918296;29;20041;-90
2022/11/03 18:51:54;;;;;;;78.25;38.95;;;;;;;-142.57;100.00;61215.63;4919387;29;20024;-90
2022/11/03 18:54:25;;;;;;;76.47;38.65;;;;;;;-142.57;100.00;61215.63;4912674;29;20132;-90
2022/11/03 18:56:52;;;;;;;88.53;41.80;;;;;;;-142.57;100.00;61215.63;4902838;29;20102;-93
2022/11/03 18:59:29;;;;;;;79.05;39.65;;;;;;;-142.57;100.00;61215.63;4918200;29;20130;-92
2022/11/03 19:01:55;;;;;;;78.13;40.70;;;;;;;-142.57;100.00;61215.63;4918466;29;20048;-90
2022/11/03 19:04:21;;;;;;;80.55;40.83;;;;;;;-142.57;100.00;61215.63;4919070;29;20570;-92
2022/11/03 19:06:50;;;;;;;82.03;40.50;;;;;;;-142.57;100.00;61215.63;4919750;29;20423;-91
2022/11/03 19:09:19;;;;;;;88.93;42.67;;;;;;;-142.57;100.00;61215.63;4917287;29;20085;-92
2022/11/03 19:11:47;;;;;;;88.32;41.17;;;;;;;-142.57;100.00;61215.63;4919498;29;20078;-93
2022/11/03 19:14:36;;;;;;;89.43;42.22;;;;;;;-142.57;100.00;61215.63;4925700;29;20056;-89
2022/11/03 19:17:18;;;;;;;96.50;46.20;;;;;;;-142.57;100.00;61215.63;4938043;29;20040;-90
2022/11/03 19:22:32;;;;;;;97.97;46.17;;;;;;;-142.57;100.00;61215.63;5757601;23;20042;-89
2022/11/03 19:24:57;;;;;;;97.32;46.42;;;;;;;-142.57;100.00;61215.63;4991503;23;20308;-88
2022/11/03 19:27:32;;;;;;;100.22;47.28;;;;;;;-142.57;100.00;61215.63;4913030;29;20036;-92
2022/11/03 19:30:00;;;;;;;92.43;46.45;;;;;;;-142.57;100.00;61215.63;5084399;23;20141;-91
2022/11/03 19:43:43;;;;;;;99.70;46.10;;;;;;;-142.57;100.00;61215.63;5305917;23;19907;-92
2022/11/03 19:47:15;;;;;;;108.43;49.00;;;;;;;-142.57;100.00;61215.63;4958891;29;20035;-89
2022/11/03 19:50:06;;;;;;;102.13;47.88;;;;;;;-142.57;100.00;61215.63;4961373;29;20030;-88
2022/11/03 19:58:33;;;;;;;114.32;52.90;;;;;;;-142.57;100.00;61215.63;2914285;27;20068;-92
2022/11/03 20:01:22;;;;;;;120.57;51.42;;;;;;;-142.57;100.00;61215.63;4918990;29;20032;-92
2022/11/03 20:03:49;;;;;;;119.05;53.47;;;;;;;-142.57;100.00;61215.63;4918121;29;20053;-91
2022/11/03 20:06:18;;;;;;;122.70;53.22;;;;;;;-142.57;100.00;61215.63;4906212;29;20028;-92
2022/11/03 20:08:47;;;;;;;119.00;52.10;;;;;;;-142.57;100.00;61215.63;4906815;29;20033;-92
2022/11/03 20:11:13;;;;;;;122.10;53.53;;;;;;;-142.57;100.00;61215.63;4910546;29;20128;-93
2022/11/03 20:13:42;;;;;;;118.82;53.15;;;;;;;-142.57;100.00;61215.63;4912727;29;20045;-91
2022/11/03 20:16:12;;;;;;;124.88;53.35;;;;;;;-142.57;100.00;61215.63;4912937;29;20040;-91
2022/11/03 20:18:38;;;;;;;128.80;54.30;;;;;;;-142.57;100.00;61215.63;4895625;29;20037;-91
2022/11/03 20:21:03;;;;;;;125.90;54.38;;;;;;;-142.57;100.00;61215.63;4910921;29;20052;-91
2022/11/03 20:23:39;;;;;;;141.52;57.75;;;;;;;-142.57;100.00;61215.63;4916869;29;20096;-93
2022/11/03 20:26:19;;;;;;;139.00;59.70;;;;;;;-142.57;100.00;61215.63;4916555;29;20068;-92
2022/11/03 20:28:45;;;;;;;137.25;57.42;;;;;;;-142.57;100.00;61215.63;4895803;29;20120;-92
2022/11/03 20:31:14;;;;;;;139.25;57.72;;;;;;;-142.57;100.00;61215.63;4920266;29;20044;-92
2022/11/03 20:34:04;;;;;;;134.82;56.03;;;;;;;-142.57;100.00;61215.63;4889905;29;20052;-92
2022/11/03 20:36:32;;;;;;;150.23;58.00;;;;;;;-142.57;100.00;61215.63;4906498;29;20032;-92
2022/11/03 20:39:03;;;;;;;138.85;57.30;;;;;;;-142.57;100.00;61215.63;4918360;29;20073;-92
2022/11/03 20:41:55;;;;;;;139.38;56.63;;;;;;;-142.57;100.00;61215.63;4922500;29;20029;-93
2022/11/03 20:44:26;;;;;;;149.60;59.83;;;;;;;-142.57;100.00;61215.63;4920074;29;20514;-93
2022/11/03 20:46:52;;;;;;;149.50;58.28;;;;;;;-142.57;100.00;61215.63;4915009;29;20032;-92
2022/11/03 20:49:17;;;;;;;154.68;58.05;;;;;;;-142.57;100.00;61215.63;4894993;29;20051;-92
2022/11/03 20:51:45;;;;;;;148.15;58.88;;;;;;;-142.57;100.00;61215.63;4913381;29;20040;-93
2022/11/03 20:54:18;;;;;;;153.02;57.17;;;;;;;-142.57;100.00;61215.63;4910521;29;20115;-92
2022/11/03 20:56:44;;;;;;;149.90;57.87;;;;;;;-142.57;100.00;61215.63;4915413;29;20047;-94
2022/11/03 20:59:23;;;;;;;157.98;58.05;;;;;;;-142.57;100.00;61215.63;4898776;29;20048;-92
2022/11/03 21:01:56;;;;;;;157.20;56.70;;;;;;;-142.57;100.00;61215.63;4911753;29;20044;-89
2022/11/03 21:04:26;;;;;;;147.43;56.13;;;;;;;-142.57;100.00;61215.63;4920088;29;20044;-93
2022/11/03 21:06:52;;;;;;;156.98;60.33;;;;;;;-142.57;100.00;61215.63;4887505;29;20514;-91
2022/11/03 21:09:18;;;;;;;159.63;59.38;;;;;;;-142.57;100.00;61215.63;4901348;29;20033;-91
2022/11/03 21:11:44;;;;;;;157.57;62.05;;;;;;;-142.57;100.00;61215.63;4902770;29;20039;-87
2022/11/03 21:14:28;;;;;;;152.45;59.97;;;;;;;-142.57;100.00;61215.63;4904324;29;20511;-93
2022/11/03 21:20:06;;;;;;;156.77;61.72;;;;;;;-142.57;100.00;61215.63;4906781;29;20043;-91
2022/11/03 21:22:32;;;;;;;160.02;60.47;;;;;;;-142.57;100.00;61215.63;4895835;29;20068;-93
2022/11/03 21:24:58;;;;;;;167.38;60.47;;;;;;;-142.57;100.00;61215.63;4892121;29;20028;-92
2022/11/03 21:27:25;;;;;;;144.23;59.15;;;;;;;-142.57;100.00;61215.63;4898160;29;20033;-92
2022/11/03 21:29:51;;;;;;;171.40;64.18;;;;;;;-142.57;100.00;61215.63;4871914;29;20060;-93
2022/11/03 21:32:21;;;;;;;148.90;59.35;;;;;;;-142.57;100.00;61215.63;4875373;29;20041;-93
2022/11/03 21:34:50;;;;;;;150.00;58.95;;;;;;;-142.57;100.00;61215.63;4906328;29;20104;-92
2022/11/03 21:37:16;;;;;;;138.63;56.72;;;;;;;-142.57;100.00;61215.63;4904262;29;20138;-91
2022/11/03 21:39:42;;;;;;;134.23;55.53;;;;;;;-142.57;100.00;61215.63;4892653;29;20100;-92